sensor_id;sensor_type;location;lat;lon;timestamp;temperature;humidity
13976;DHT22;7062;49.792;9.946;2024-01-07T00:01:57;8.40;99.90
13976;DHT22;7062;49.792;9.946;2024-01-07T00:04:22;8.30;99.90
13976;DHT22;7062;49.792;9.946;2024-01-07T00:06:48;8.20;99.90
13976;DHT22;7062;49.792;9.946;2024-01-07T00:09:14;8.30;99.90
13976;DHT22;7062;49.792;9.946;2024-01-07T00:11:40;8.30;99.90
13976;DHT22;7062;49.792;9.946;2024-01-07T00:14:06;8.20;99.90
13976;DHT22;7062;49.792;9.946;2024-01-07T00:16:32;8.00;99.90
13976;DHT22;7062;49.792;9.946;2024-01-07T00:18:57;7.90;99.90
13976;DHT22;7062;49.792;9.946;2024-01-07T00:21:23;7.70;99.90
13976;DHT22;7062;49.792;9.946;2024-01-07T00:23:50;7.70;99.90
13976;DHT22;7062;49.792;9.946;2024-01-07T00:26:15;7.60;99.90
13976;DHT22;7062;49.792;9.946;2024-01-07T00:28:41;7.70;99.90
13976;DHT22;7062;49.792;9.946;2024-01-07T00:31:06;7.80;99.90
13976;DHT22;7062;49.792;9.946;2024-01-07T00:33:35;7.70;99.90
13976;DHT22;7062;49.792;9.946;2024-01-07T00:36:03;7.60;99.90
13976;DHT22;7062;49.792;9.946;2024-01-07T00:38:29;7.50;99.90
13976;DHT22;7062;49.792;9.946;2024-01-07T00:40:55;7.50;99.90
13976;DHT22;7062;49.792;9.946;2024-01-07T00:43:20;7.40;99.90
13976;DHT22;7062;49.792;9.946;2024-01-07T00:45:46;7.40;99.90
13976;DHT22;7062;49.792;9.946;2024-01-07T00:48:13;7.30;99.90
13976;DHT22;7062;49.792;9.946;2024-01-07T00:50:39;7.30;99.90
13976;DHT22;7062;49.792;9.946;2024-01-07T00:53:07;7.40;99.90
13976;DHT22;7062;49.792;9.946;2024-01-07T00:55:33;7.50;99.90
13976;DHT22;7062;49.792;9.946;2024-01-07T00:58:01;7.40;99.90
13976;DHT22;7062;49.792;9.946;2024-01-07T01:00:26;7.50;99.90
13976;DHT22;7062;49.792;9.946;2024-01-07T01:02:53;7.60;99.90
13976;DHT22;7062;49.792;9.946;2024-01-07T01:05:19;7.70;99.90
13976;DHT22;7062;49.792;9.946;2024-01-07T01:07:44;7.70;99.90
13976;DHT22;7062;49.792;9.946;2024-01-07T01:10:10;7.80;99.90
13976;DHT22;7062;49.792;9.946;2024-01-07T01:12:35;8.00;99.90
13976;DHT22;7062;49.792;9.946;2024-01-07T01:15:01;8.10;99.90
13976;DHT22;7062;49.792;9.946;2024-01-07T01:17:27;8.20;99.90
13976;DHT22;7062;49.792;9.946;2024-01-07T01:19:52;8.20;99.90
13976;DHT22;7062;49.792;9.946;2024-01-07T01:22:18;8.30;99.90
13976;DHT22;7062;49.792;9.946;2024-01-07T01:24:43;8.40;99.90
13976;DHT22;7062;49.792;9.946;2024-01-07T01:27:12;8.40;99.90
13976;DHT22;7062;49.792;9.946;2024-01-07T01:29:38;8.50;99.90
13976;DHT22;7062;49.792;9.946;2024-01-07T01:32:05;8.60;99.90
13976;DHT22;7062;49.792;9.946;2024-01-07T01:34:31;8.50;99.90
13976;DHT22;7062;49.792;9.946;2024-01-07T01:36:57;8.40;99.90
13976;DHT22;7062;49.792;9.946;2024-01-07T01:39:23;8.30;99.90
13976;DHT22;7062;49.792;9.946;2024-01-07T01:41:48;8.30;99.90
13976;DHT22;7062;49.792;9.946;2024-01-07T01:44:14;8.30;99.90
13976;DHT22;7062;49.792;9.946;2024-01-07T01:46:40;8.40;99.90
13976;DHT22;7062;49.792;9.946;2024-01-07T01:49:06;8.40;99.90
13976;DHT22;7062;49.792;9.946;2024-01-07T01:51:32;8.30;99.90
13976;DHT22;7062;49.792;9.946;2024-01-07T01:53:59;8.30;99.90
13976;DHT22;7062;49.792;9.946;2024-01-07T01:56:27;8.40;99.90
13976;DHT22;7062;49.792;9.946;2024-01-07T01:58:54;8.40;99.90
13976;DHT22;7062;49.792;9.946;2024-01-07T02:01:20;8.30;99.90
13976;DHT22;7062;49.792;9.946;2024-01-07T02:03:45;8.30;99.90
13976;DHT22;7062;49.792;9.946;2024-01-07T02:06:11;8.40;99.90
13976;DHT22;7062;49.792;9.946;2024-01-07T02:08:38;8.50;99.90
13976;DHT22;7062;49.792;9.946;2024-01-07T02:11:17;8.60;99.90
13976;DHT22;7062;49.792;9.946;2024-01-07T02:13:43;8.30;99.90
13976;DHT22;7062;49.792;9.946;2024-01-07T02:16:09;8.20;99.90
13976;DHT22;7062;49.792;9.946;2024-01-07T02:18:35;8.30;99.90
13976;DHT22;7062;49.792;9.946;2024-01-07T02:21:01;8.20;99.90
13976;DHT22;7062;49.792;9.946;2024-01-07T02:23:26;8.30;99.90
13976;DHT22;7062;49.792;9.946;2024-01-07T02:25:52;8.40;99.90
13976;DHT22;7062;49.792;9.946;2024-01-07T02:28:17;8.40;99.90
13976;DHT22;7062;49.792;9.946;2024-01-07T02:30:43;8.40;99.90
13976;DHT22;7062;49.792;9.946;2024-01-07T02:33:09;8.40;99.90
13976;DHT22;7062;49.792;9.946;2024-01-07T02:35:34;8.40;99.90
13976;DHT22;7062;49.792;9.946;2024-01-07T02:38:00;8.40;99.90
13976;DHT22;7062;49.792;9.946;2024-01-07T02:40:25;8.30;99.90
13976;DHT22;7062;49.792;9.946;2024-01-07T02:42:51;8.30;99.90
13976;DHT22;7062;49.792;9.946;2024-01-07T02:45:16;8.10;99.90
13976;DHT22;7062;49.792;9.946;2024-01-07T02:47:42;8.10;99.90
13976;DHT22;7062;49.792;9.946;2024-01-07T02:50:08;7.90;99.90
13976;DHT22;7062;49.792;9.946;2024-01-07T02:52:33;7.70;99.90
13976;DHT22;7062;49.792;9.946;2024-01-07T02:54:59;7.60;99.90
13976;DHT22;7062;49.792;9.946;2024-01-07T02:57:27;7.70;99.90
13976;DHT22;7062;49.792;9.946;2024-01-07T02:59:52;7.60;99.90
13976;DHT22;7062;49.792;9.946;2024-01-07T03:02:18;7.50;99.90
13976;DHT22;7062;49.792;9.946;2024-01-07T03:04:44;7.40;99.90
13976;DHT22;7062;49.792;9.946;2024-01-07T03:07:09;7.40;99.90
13976;DHT22;7062;49.792;9.946;2024-01-07T03:09:35;7.30;99.90
13976;DHT22;7062;49.792;9.946;2024-01-07T03:12:01;7.30;99.90
13976;DHT22;7062;49.792;9.946;2024-01-07T03:14:26;7.30;99.90
13976;DHT22;7062;49.792;9.946;2024-01-07T03:16:52;7.30;99.90
13976;DHT22;7062;49.792;9.946;2024-01-07T03:19:18;7.30;99.90
13976;DHT22;7062;49.792;9.946;2024-01-07T03:21:43;7.20;99.90
13976;DHT22;7062;49.792;9.946;2024-01-07T03:24:10;7.30;99.90
13976;DHT22;7062;49.792;9.946;2024-01-07T03:26:36;7.30;99.90
13976;DHT22;7062;49.792;9.946;2024-01-07T03:29:01;7.40;99.90
13976;DHT22;7062;49.792;9.946;2024-01-07T03:31:28;7.30;99.90
13976;DHT22;7062;49.792;9.946;2024-01-07T03:33:53;7.40;99.90
13976;DHT22;7062;49.792;9.946;2024-01-07T03:36:19;7.40;99.90
13976;DHT22;7062;49.792;9.946;2024-01-07T03:38:45;7.30;99.90
13976;DHT22;7062;49.792;9.946;2024-01-07T03:41:16;7.20;99.90
13976;DHT22;7062;49.792;9.946;2024-01-07T03:43:42;7.30;99.90
13976;DHT22;7062;49.792;9.946;2024-01-07T03:46:08;7.30;99.90
13976;DHT22;7062;49.792;9.946;2024-01-07T03:48:33;7.20;99.90
13976;DHT22;7062;49.792;9.946;2024-01-07T03:50:59;7.20;99.90
13976;DHT22;7062;49.792;9.946;2024-01-07T03:53:25;7.10;99.90
13976;DHT22;7062;49.792;9.946;2024-01-07T03:55:50;7.20;99.90
13976;DHT22;7062;49.792;9.946;2024-01-07T03:58:16;7.10;99.90
13976;DHT22;7062;49.792;9.946;2024-01-07T04:00:42;7.90;99.90
13976;DHT22;7062;49.792;9.946;2024-01-07T04:03:07;7.30;99.90
13976;DHT22;7062;49.792;9.946;2024-01-07T04:05:33;7.20;99.90
13976;DHT22;7062;49.792;9.946;2024-01-07T04:08:00;7.20;99.90
13976;DHT22;7062;49.792;9.946;2024-01-07T04:10:26;7.10;99.90
13976;DHT22;7062;49.792;9.946;2024-01-07T04:12:52;7.20;99.90
13976;DHT22;7062;49.792;9.946;2024-01-07T04:15:18;7.00;99.90
13976;DHT22;7062;49.792;9.946;2024-01-07T04:17:43;7.10;99.90
13976;DHT22;7062;49.792;9.946;2024-01-07T04:20:12;7.30;99.90
13976;DHT22;7062;49.792;9.946;2024-01-07T04:22:38;7.10;99.90
13976;DHT22;7062;49.792;9.946;2024-01-07T04:25:04;7.00;99.90
13976;DHT22;7062;49.792;9.946;2024-01-07T04:27:36;7.10;99.90
13976;DHT22;7062;49.792;9.946;2024-01-07T04:30:02;7.10;99.90
13976;DHT22;7062;49.792;9.946;2024-01-07T04:32:28;7.20;99.90
13976;DHT22;7062;49.792;9.946;2024-01-07T04:34:53;7.30;99.90
13976;DHT22;7062;49.792;9.946;2024-01-07T04:37:19;7.20;99.90
13976;DHT22;7062;49.792;9.946;2024-01-07T04:39:45;7.20;99.90
13976;DHT22;7062;49.792;9.946;2024-01-07T04:42:10;7.10;99.90
13976;DHT22;7062;49.792;9.946;2024-01-07T04:44:36;7.20;99.90
13976;DHT22;7062;49.792;9.946;2024-01-07T04:47:01;7.10;99.90
13976;DHT22;7062;49.792;9.946;2024-01-07T04:49:27;7.20;99.90
13976;DHT22;7062;49.792;9.946;2024-01-07T04:51:53;7.20;99.90
13976;DHT22;7062;49.792;9.946;2024-01-07T04:54:19;7.10;99.90
13976;DHT22;7062;49.792;9.946;2024-01-07T04:56:44;7.10;99.90
13976;DHT22;7062;49.792;9.946;2024-01-07T04:59:10;7.00;99.90
13976;DHT22;7062;49.792;9.946;2024-01-07T05:01:35;6.90;99.90
13976;DHT22;7062;49.792;9.946;2024-01-07T05:04:02;6.90;99.90
13976;DHT22;7062;49.792;9.946;2024-01-07T05:06:27;6.80;99.90
13976;DHT22;7062;49.792;9.946;2024-01-07T05:08:53;6.90;99.90
13976;DHT22;7062;49.792;9.946;2024-01-07T05:11:19;7.00;99.90
13976;DHT22;7062;49.792;9.946;2024-01-07T05:13:44;7.20;99.90
13976;DHT22;7062;49.792;9.946;2024-01-07T05:16:21;7.20;99.90
13976;DHT22;7062;49.792;9.946;2024-01-07T05:18:46;7.20;99.90
13976;DHT22;7062;49.792;9.946;2024-01-07T05:21:15;7.00;99.90
13976;DHT22;7062;49.792;9.946;2024-01-07T05:23:41;7.00;99.90
13976;DHT22;7062;49.792;9.946;2024-01-07T05:26:07;7.10;99.90
13976;DHT22;7062;49.792;9.946;2024-01-07T05:28:32;7.20;99.90
13976;DHT22;7062;49.792;9.946;2024-01-07T05:30:58;7.00;99.90
13976;DHT22;7062;49.792;9.946;2024-01-07T05:33:23;6.90;99.90
13976;DHT22;7062;49.792;9.946;2024-01-07T05:35:49;6.90;99.90
13976;DHT22;7062;49.792;9.946;2024-01-07T05:38:15;6.90;99.90
13976;DHT22;7062;49.792;9.946;2024-01-07T05:40:40;6.80;99.90
13976;DHT22;7062;49.792;9.946;2024-01-07T05:43:06;6.70;99.90
13976;DHT22;7062;49.792;9.946;2024-01-07T05:45:32;6.70;99.90
13976;DHT22;7062;49.792;9.946;2024-01-07T05:47:57;6.60;99.90
13976;DHT22;7062;49.792;9.946;2024-01-07T05:50:23;6.60;99.90
13976;DHT22;7062;49.792;9.946;2024-01-07T05:52:48;6.50;99.90
13976;DHT22;7062;49.792;9.946;2024-01-07T05:55:14;6.60;99.90
13976;DHT22;7062;49.792;9.946;2024-01-07T05:57:40;6.60;99.90
13976;DHT22;7062;49.792;9.946;2024-01-07T06:00:06;6.60;99.90
13976;DHT22;7062;49.792;9.946;2024-01-07T06:02:32;6.60;99.90
13976;DHT22;7062;49.792;9.946;2024-01-07T06:04:59;6.50;99.90
13976;DHT22;7062;49.792;9.946;2024-01-07T06:07:25;6.40;99.90
13976;DHT22;7062;49.792;9.946;2024-01-07T06:09:50;6.40;99.90
13976;DHT22;7062;49.792;9.946;2024-01-07T06:12:16;6.40;99.90
13976;DHT22;7062;49.792;9.946;2024-01-07T06:14:42;6.20;99.90
13976;DHT22;7062;49.792;9.946;2024-01-07T06:17:07;6.30;99.90
13976;DHT22;7062;49.792;9.946;2024-01-07T06:19:33;6.20;99.90
13976;DHT22;7062;49.792;9.946;2024-01-07T06:21:59;6.10;99.90
13976;DHT22;7062;49.792;9.946;2024-01-07T06:24:25;6.00;99.90
13976;DHT22;7062;49.792;9.946;2024-01-07T06:26:50;6.00;99.90
13976;DHT22;7062;49.792;9.946;2024-01-07T06:29:16;6.10;99.90
13976;DHT22;7062;49.792;9.946;2024-01-07T06:31:45;6.10;99.90
13976;DHT22;7062;49.792;9.946;2024-01-07T06:34:12;6.00;99.90
13976;DHT22;7062;49.792;9.946;2024-01-07T06:36:41;6.00;99.90
13976;DHT22;7062;49.792;9.946;2024-01-07T06:39:07;6.10;99.90
13976;DHT22;7062;49.792;9.946;2024-01-07T06:41:34;6.10;99.90
13976;DHT22;7062;49.792;9.946;2024-01-07T06:44:00;6.10;99.90
13976;DHT22;7062;49.792;9.946;2024-01-07T06:46:27;6.10;99.90
13976;DHT22;7062;49.792;9.946;2024-01-07T06:48:52;6.00;99.90
13976;DHT22;7062;49.792;9.946;2024-01-07T06:51:18;6.00;99.90
13976;DHT22;7062;49.792;9.946;2024-01-07T06:53:43;5.90;99.90
13976;DHT22;7062;49.792;9.946;2024-01-07T06:56:09;5.90;99.90
13976;DHT22;7062;49.792;9.946;2024-01-07T06:58:35;6.10;99.90
13976;DHT22;7062;49.792;9.946;2024-01-07T07:01:00;6.00;99.90
13976;DHT22;7062;49.792;9.946;2024-01-07T07:03:26;6.10;99.90
13976;DHT22;7062;49.792;9.946;2024-01-07T07:05:51;6.20;99.90
13976;DHT22;7062;49.792;9.946;2024-01-07T07:08:17;6.20;99.90
13976;DHT22;7062;49.792;9.946;2024-01-07T07:10:43;6.10;99.90
13976;DHT22;7062;49.792;9.946;2024-01-07T07:13:08;6.00;99.90
13976;DHT22;7062;49.792;9.946;2024-01-07T07:15:34;6.00;99.90
13976;DHT22;7062;49.792;9.946;2024-01-07T07:18:00;6.00;99.90
13976;DHT22;7062;49.792;9.946;2024-01-07T07:20:25;5.80;99.90
13976;DHT22;7062;49.792;9.946;2024-01-07T07:22:51;5.70;99.90
13976;DHT22;7062;49.792;9.946;2024-01-07T07:25:16;5.70;99.90
13976;DHT22;7062;49.792;9.946;2024-01-07T07:27:42;5.60;99.90
13976;DHT22;7062;49.792;9.946;2024-01-07T07:30:08;5.50;99.90
13976;DHT22;7062;49.792;9.946;2024-01-07T07:32:34;5.60;99.90
13976;DHT22;7062;49.792;9.946;2024-01-07T07:35:01;5.70;99.90
13976;DHT22;7062;49.792;9.946;2024-01-07T07:37:26;5.50;99.90
13976;DHT22;7062;49.792;9.946;2024-01-07T07:39:52;5.50;99.90
13976;DHT22;7062;49.792;9.946;2024-01-07T07:42:17;5.50;99.90
13976;DHT22;7062;49.792;9.946;2024-01-07T07:44:43;5.40;99.90
13976;DHT22;7062;49.792;9.946;2024-01-07T07:47:09;5.30;99.90
13976;DHT22;7062;49.792;9.946;2024-01-07T07:49:37;5.30;99.90
13976;DHT22;7062;49.792;9.946;2024-01-07T07:52:06;5.30;99.90
13976;DHT22;7062;49.792;9.946;2024-01-07T07:54:32;5.20;99.90
13976;DHT22;7062;49.792;9.946;2024-01-07T07:56:58;5.10;99.90
13976;DHT22;7062;49.792;9.946;2024-01-07T07:59:23;5.10;99.90
13976;DHT22;7062;49.792;9.946;2024-01-07T08:01:49;5.20;99.90
13976;DHT22;7062;49.792;9.946;2024-01-07T08:04:15;5.10;99.90
13976;DHT22;7062;49.792;9.946;2024-01-07T08:06:41;5.10;99.90
13976;DHT22;7062;49.792;9.946;2024-01-07T08:09:08;5.10;99.90
13976;DHT22;7062;49.792;9.946;2024-01-07T08:11:34;5.10;99.90
13976;DHT22;7062;49.792;9.946;2024-01-07T08:13:59;5.10;99.90
13976;DHT22;7062;49.792;9.946;2024-01-07T08:16:27;5.20;99.90
13976;DHT22;7062;49.792;9.946;2024-01-07T08:18:52;5.50;99.90
13976;DHT22;7062;49.792;9.946;2024-01-07T08:21:22;5.70;99.90
13976;DHT22;7062;49.792;9.946;2024-01-07T08:23:48;5.70;99.90
13976;DHT22;7062;49.792;9.946;2024-01-07T08:26:23;5.50;99.90
13976;DHT22;7062;49.792;9.946;2024-01-07T08:28:49;5.60;99.90
13976;DHT22;7062;49.792;9.946;2024-01-07T08:31:14;5.70;99.90
13976;DHT22;7062;49.792;9.946;2024-01-07T08:33:40;5.70;99.90
13976;DHT22;7062;49.792;9.946;2024-01-07T08:36:06;5.50;99.90
13976;DHT22;7062;49.792;9.946;2024-01-07T08:38:32;5.40;99.90
13976;DHT22;7062;49.792;9.946;2024-01-07T08:40:57;5.30;99.90
13976;DHT22;7062;49.792;9.946;2024-01-07T08:43:23;5.30;99.90
13976;DHT22;7062;49.792;9.946;2024-01-07T08:45:49;5.20;99.90
13976;DHT22;7062;49.792;9.946;2024-01-07T08:48:15;5.30;99.90
13976;DHT22;7062;49.792;9.946;2024-01-07T08:50:41;5.30;99.90
13976;DHT22;7062;49.792;9.946;2024-01-07T08:53:07;5.40;99.90
13976;DHT22;7062;49.792;9.946;2024-01-07T08:55:32;5.40;99.90
13976;DHT22;7062;49.792;9.946;2024-01-07T08:57:59;5.40;99.90
13976;DHT22;7062;49.792;9.946;2024-01-07T09:00:24;5.60;99.90
13976;DHT22;7062;49.792;9.946;2024-01-07T09:02:52;5.50;99.90
13976;DHT22;7062;49.792;9.946;2024-01-07T09:05:18;5.50;99.90
13976;DHT22;7062;49.792;9.946;2024-01-07T09:07:44;5.70;99.90
13976;DHT22;7062;49.792;9.946;2024-01-07T09:10:09;5.50;99.90
13976;DHT22;7062;49.792;9.946;2024-01-07T09:12:37;5.40;99.90
13976;DHT22;7062;49.792;9.946;2024-01-07T09:15:04;5.30;99.90
13976;DHT22;7062;49.792;9.946;2024-01-07T09:17:30;5.40;99.90
13976;DHT22;7062;49.792;9.946;2024-01-07T09:19:56;5.30;99.90
13976;DHT22;7062;49.792;9.946;2024-01-07T09:22:22;5.20;99.90
13976;DHT22;7062;49.792;9.946;2024-01-07T09:24:47;5.30;99.90
13976;DHT22;7062;49.792;9.946;2024-01-07T09:27:13;5.30;99.90
13976;DHT22;7062;49.792;9.946;2024-01-07T09:29:39;5.50;99.90
13976;DHT22;7062;49.792;9.946;2024-01-07T09:32:05;5.70;99.90
13976;DHT22;7062;49.792;9.946;2024-01-07T09:34:31;5.90;99.90
13976;DHT22;7062;49.792;9.946;2024-01-07T09:36:57;6.00;99.90
13976;DHT22;7062;49.792;9.946;2024-01-07T09:39:22;5.90;99.90
13976;DHT22;7062;49.792;9.946;2024-01-07T09:41:48;5.80;99.90
13976;DHT22;7062;49.792;9.946;2024-01-07T09:44:13;5.80;99.90
13976;DHT22;7062;49.792;9.946;2024-01-07T09:46:39;5.70;99.90
13976;DHT22;7062;49.792;9.946;2024-01-07T09:49:07;5.60;99.90
13976;DHT22;7062;49.792;9.946;2024-01-07T09:51:35;5.50;99.90
13976;DHT22;7062;49.792;9.946;2024-01-07T09:54:03;5.40;99.90
13976;DHT22;7062;49.792;9.946;2024-01-07T09:56:39;5.30;99.90
13976;DHT22;7062;49.792;9.946;2024-01-07T09:59:07;5.00;99.90
13976;DHT22;7062;49.792;9.946;2024-01-07T10:01:34;5.00;99.90
13976;DHT22;7062;49.792;9.946;2024-01-07T10:04:01;4.90;99.90
13976;DHT22;7062;49.792;9.946;2024-01-07T10:06:27;4.80;99.90
13976;DHT22;7062;49.792;9.946;2024-01-07T10:08:52;4.80;99.90
13976;DHT22;7062;49.792;9.946;2024-01-07T10:11:18;4.90;99.90
13976;DHT22;7062;49.792;9.946;2024-01-07T10:13:46;4.70;99.90
13976;DHT22;7062;49.792;9.946;2024-01-07T10:16:17;4.70;99.90
13976;DHT22;7062;49.792;9.946;2024-01-07T10:18:42;4.70;99.90
13976;DHT22;7062;49.792;9.946;2024-01-07T10:21:08;4.80;99.90
13976;DHT22;7062;49.792;9.946;2024-01-07T10:23:34;4.80;99.90
13976;DHT22;7062;49.792;9.946;2024-01-07T10:25:59;4.80;99.90
13976;DHT22;7062;49.792;9.946;2024-01-07T10:28:27;5.00;99.90
13976;DHT22;7062;49.792;9.946;2024-01-07T10:30:53;4.90;99.90
13976;DHT22;7062;49.792;9.946;2024-01-07T10:33:18;4.90;99.90
13976;DHT22;7062;49.792;9.946;2024-01-07T10:35:51;4.80;99.90
13976;DHT22;7062;49.792;9.946;2024-01-07T10:38:19;4.90;99.90
13976;DHT22;7062;49.792;9.946;2024-01-07T10:40:46;4.90;99.90
13976;DHT22;7062;49.792;9.946;2024-01-07T10:43:15;5.00;99.90
13976;DHT22;7062;49.792;9.946;2024-01-07T10:45:41;5.10;99.90
13976;DHT22;7062;49.792;9.946;2024-01-07T10:48:08;4.80;99.90
13976;DHT22;7062;49.792;9.946;2024-01-07T10:50:35;4.60;99.90
13976;DHT22;7062;49.792;9.946;2024-01-07T10:53:04;4.60;99.90
13976;DHT22;7062;49.792;9.946;2024-01-07T10:55:34;4.50;99.90
13976;DHT22;7062;49.792;9.946;2024-01-07T10:58:03;4.40;99.90
13976;DHT22;7062;49.792;9.946;2024-01-07T11:00:30;4.40;99.90
13976;DHT22;7062;49.792;9.946;2024-01-07T11:05:44;4.40;99.90
13976;DHT22;7062;49.792;9.946;2024-01-07T11:08:22;4.30;99.90
13976;DHT22;7062;49.792;9.946;2024-01-07T11:10:55;4.30;99.90
13976;DHT22;7062;49.792;9.946;2024-01-07T11:13:38;4.50;99.90
13976;DHT22;7062;49.792;9.946;2024-01-07T11:16:08;4.40;99.90
13976;DHT22;7062;49.792;9.946;2024-01-07T11:18:45;4.40;99.90
13976;DHT22;7062;49.792;9.946;2024-01-07T11:21:11;4.60;99.90
13976;DHT22;7062;49.792;9.946;2024-01-07T11:23:45;4.40;99.90
13976;DHT22;7062;49.792;9.946;2024-01-07T11:26:12;4.40;99.90
13976;DHT22;7062;49.792;9.946;2024-01-07T11:28:54;4.30;99.90
13976;DHT22;7062;49.792;9.946;2024-01-07T11:34:07;4.20;99.90
13976;DHT22;7062;49.792;9.946;2024-01-07T11:36:35;4.10;99.90
13976;DHT22;7062;49.792;9.946;2024-01-07T11:39:02;4.20;99.90
13976;DHT22;7062;49.792;9.946;2024-01-07T11:41:33;4.30;99.90
13976;DHT22;7062;49.792;9.946;2024-01-07T11:43:59;4.20;99.90
13976;DHT22;7062;49.792;9.946;2024-01-07T11:46:29;4.10;99.90
13976;DHT22;7062;49.792;9.946;2024-01-07T11:48:59;4.10;99.90
13976;DHT22;7062;49.792;9.946;2024-01-07T11:51:28;4.10;99.90
13976;DHT22;7062;49.792;9.946;2024-01-07T11:53:59;4.20;99.90
13976;DHT22;7062;49.792;9.946;2024-01-07T11:56:25;4.20;99.90
13976;DHT22;7062;49.792;9.946;2024-01-07T11:58:54;4.20;99.90
13976;DHT22;7062;49.792;9.946;2024-01-07T12:01:23;4.10;99.90
13976;DHT22;7062;49.792;9.946;2024-01-07T12:03:51;4.10;99.90
13976;DHT22;7062;49.792;9.946;2024-01-07T12:06:16;4.00;99.90
13976;DHT22;7062;49.792;9.946;2024-01-07T12:08:45;4.10;99.90
13976;DHT22;7062;49.792;9.946;2024-01-07T12:11:12;4.10;99.90
13976;DHT22;7062;49.792;9.946;2024-01-07T12:13:39;4.10;99.90
13976;DHT22;7062;49.792;9.946;2024-01-07T12:16:05;4.10;99.90
13976;DHT22;7062;49.792;9.946;2024-01-07T12:18:31;4.00;99.90
13976;DHT22;7062;49.792;9.946;2024-01-07T12:20:58;3.90;99.90
13976;DHT22;7062;49.792;9.946;2024-01-07T12:23:24;3.90;99.90
13976;DHT22;7062;49.792;9.946;2024-01-07T12:25:51;3.80;99.90
13976;DHT22;7062;49.792;9.946;2024-01-07T12:28:17;3.90;99.90
13976;DHT22;7062;49.792;9.946;2024-01-07T12:30:49;3.90;99.90
13976;DHT22;7062;49.792;9.946;2024-01-07T12:33:19;3.90;99.90
13976;DHT22;7062;49.792;9.946;2024-01-07T12:35:47;3.90;99.90
13976;DHT22;7062;49.792;9.946;2024-01-07T12:38:12;4.00;99.90
13976;DHT22;7062;49.792;9.946;2024-01-07T12:40:38;4.00;99.90
13976;DHT22;7062;49.792;9.946;2024-01-07T12:43:05;4.20;99.90
13976;DHT22;7062;49.792;9.946;2024-01-07T12:45:33;4.20;99.90
13976;DHT22;7062;49.792;9.946;2024-01-07T12:47:58;4.10;99.90
13976;DHT22;7062;49.792;9.946;2024-01-07T12:50:27;4.10;99.90
13976;DHT22;7062;49.792;9.946;2024-01-07T12:52:55;4.10;99.90
13976;DHT22;7062;49.792;9.946;2024-01-07T12:55:22;3.90;99.90
13976;DHT22;7062;49.792;9.946;2024-01-07T12:57:48;3.80;99.90
13976;DHT22;7062;49.792;9.946;2024-01-07T13:00:14;3.70;99.90
13976;DHT22;7062;49.792;9.946;2024-01-07T13:02:42;3.70;99.90
13976;DHT22;7062;49.792;9.946;2024-01-07T13:05:08;3.70;99.90
13976;DHT22;7062;49.792;9.946;2024-01-07T13:07:34;3.90;99.90
13976;DHT22;7062;49.792;9.946;2024-01-07T13:10:00;3.90;99.90
13976;DHT22;7062;49.792;9.946;2024-01-07T13:12:26;4.00;99.90
13976;DHT22;7062;49.792;9.946;2024-01-07T13:14:52;3.90;99.90
13976;DHT22;7062;49.792;9.946;2024-01-07T13:17:18;3.80;99.90
13976;DHT22;7062;49.792;9.946;2024-01-07T13:19:44;3.80;99.90
13976;DHT22;7062;49.792;9.946;2024-01-07T13:22:10;3.60;99.90
13976;DHT22;7062;49.792;9.946;2024-01-07T13:24:36;3.50;99.90
13976;DHT22;7062;49.792;9.946;2024-01-07T13:27:02;3.70;99.90
13976;DHT22;7062;49.792;9.946;2024-01-07T13:29:28;3.60;99.90
13976;DHT22;7062;49.792;9.946;2024-01-07T13:31:53;3.50;99.90
13976;DHT22;7062;49.792;9.946;2024-01-07T13:34:19;3.60;99.90
13976;DHT22;7062;49.792;9.946;2024-01-07T13:36:45;3.70;99.90
13976;DHT22;7062;49.792;9.946;2024-01-07T13:39:10;3.70;99.90
13976;DHT22;7062;49.792;9.946;2024-01-07T13:41:36;3.70;99.90
13976;DHT22;7062;49.792;9.946;2024-01-07T13:44:02;3.50;99.90
13976;DHT22;7062;49.792;9.946;2024-01-07T13:46:32;3.20;99.90
13976;DHT22;7062;49.792;9.946;2024-01-07T13:48:59;3.40;99.90
13976;DHT22;7062;49.792;9.946;2024-01-07T13:51:25;3.40;99.90
13976;DHT22;7062;49.792;9.946;2024-01-07T13:53:51;3.40;99.90
13976;DHT22;7062;49.792;9.946;2024-01-07T13:56:17;3.40;99.90
13976;DHT22;7062;49.792;9.946;2024-01-07T13:58:43;3.40;99.90
13976;DHT22;7062;49.792;9.946;2024-01-07T14:01:12;3.40;99.90
13976;DHT22;7062;49.792;9.946;2024-01-07T14:03:38;3.40;99.90
13976;DHT22;7062;49.792;9.946;2024-01-07T14:06:04;3.40;99.90
13976;DHT22;7062;49.792;9.946;2024-01-07T14:08:29;3.30;99.90
13976;DHT22;7062;49.792;9.946;2024-01-07T14:10:55;3.30;99.90
13976;DHT22;7062;49.792;9.946;2024-01-07T14:13:21;3.20;99.90
13976;DHT22;7062;49.792;9.946;2024-01-07T14:15:47;3.20;99.90
13976;DHT22;7062;49.792;9.946;2024-01-07T14:18:13;3.00;99.90
13976;DHT22;7062;49.792;9.946;2024-01-07T14:20:41;3.00;99.90
13976;DHT22;7062;49.792;9.946;2024-01-07T14:23:07;2.80;99.90
13976;DHT22;7062;49.792;9.946;2024-01-07T14:25:33;2.80;99.90
13976;DHT22;7062;49.792;9.946;2024-01-07T14:27:59;2.80;99.90
13976;DHT22;7062;49.792;9.946;2024-01-07T14:30:24;3.00;99.90
13976;DHT22;7062;49.792;9.946;2024-01-07T14:32:50;3.00;99.90
13976;DHT22;7062;49.792;9.946;2024-01-07T14:35:16;2.90;99.90
13976;DHT22;7062;49.792;9.946;2024-01-07T14:37:42;2.80;99.90
13976;DHT22;7062;49.792;9.946;2024-01-07T14:40:08;2.90;99.90
13976;DHT22;7062;49.792;9.946;2024-01-07T14:42:33;2.90;99.90
13976;DHT22;7062;49.792;9.946;2024-01-07T14:44:59;3.20;99.90
13976;DHT22;7062;49.792;9.946;2024-01-07T14:47:25;3.10;99.90
13976;DHT22;7062;49.792;9.946;2024-01-07T14:49:51;3.10;99.90
13976;DHT22;7062;49.792;9.946;2024-01-07T14:52:16;2.90;99.90
13976;DHT22;7062;49.792;9.946;2024-01-07T14:54:42;3.00;99.90
13976;DHT22;7062;49.792;9.946;2024-01-07T14:57:08;2.80;99.90
13976;DHT22;7062;49.792;9.946;2024-01-07T14:59:35;2.80;99.90
13976;DHT22;7062;49.792;9.946;2024-01-07T15:02:03;2.90;99.90
13976;DHT22;7062;49.792;9.946;2024-01-07T15:04:29;2.70;99.90
13976;DHT22;7062;49.792;9.946;2024-01-07T15:06:55;2.70;99.90
13976;DHT22;7062;49.792;9.946;2024-01-07T15:09:22;2.70;99.90
13976;DHT22;7062;49.792;9.946;2024-01-07T15:11:47;2.70;99.90
13976;DHT22;7062;49.792;9.946;2024-01-07T15:14:14;2.70;99.90
13976;DHT22;7062;49.792;9.946;2024-01-07T15:16:40;2.70;99.90
13976;DHT22;7062;49.792;9.946;2024-01-07T15:19:06;2.70;99.90
13976;DHT22;7062;49.792;9.946;2024-01-07T15:21:31;2.90;99.90
13976;DHT22;7062;49.792;9.946;2024-01-07T15:23:57;3.00;99.90
13976;DHT22;7062;49.792;9.946;2024-01-07T15:26:23;2.60;99.90
13976;DHT22;7062;49.792;9.946;2024-01-07T15:28:49;2.50;99.90
13976;DHT22;7062;49.792;9.946;2024-01-07T15:31:14;2.40;99.90
13976;DHT22;7062;49.792;9.946;2024-01-07T15:33:40;2.40;99.90
13976;DHT22;7062;49.792;9.946;2024-01-07T15:36:06;2.30;99.90
13976;DHT22;7062;49.792;9.946;2024-01-07T15:38:32;2.30;99.90
13976;DHT22;7062;49.792;9.946;2024-01-07T15:40:58;2.40;99.90
13976;DHT22;7062;49.792;9.946;2024-01-07T15:43:23;2.40;99.90
13976;DHT22;7062;49.792;9.946;2024-01-07T15:45:49;2.50;99.90
13976;DHT22;7062;49.792;9.946;2024-01-07T15:48:14;2.60;99.90
13976;DHT22;7062;49.792;9.946;2024-01-07T15:50:40;2.50;99.90
13976;DHT22;7062;49.792;9.946;2024-01-07T15:53:06;2.60;99.90
13976;DHT22;7062;49.792;9.946;2024-01-07T15:55:32;2.60;99.90
13976;DHT22;7062;49.792;9.946;2024-01-07T15:57:57;2.60;99.90
13976;DHT22;7062;49.792;9.946;2024-01-07T16:00:23;2.70;99.90
13976;DHT22;7062;49.792;9.946;2024-01-07T16:02:49;2.60;99.90